sensor_id;sensor_type;location;lat;lon;timestamp;P1;durP1;ratioP1;P2;durP2;ratioP2
52322;SDS011;38263;52.920;6.238;2023-11-21T00:00:04;25.85;;;9.48;;
52322;SDS011;38263;52.920;6.238;2023-11-21T00:02:36;23.95;;;8.93;;
52322;SDS011;38263;52.920;6.238;2023-11-21T00:05:05;29.70;;;9.00;;
52322;SDS011;38263;52.920;6.238;2023-11-21T00:07:32;32.33;;;8.98;;
52322;SDS011;38263;52.920;6.238;2023-11-21T00:09:58;26.58;;;8.98;;
52322;SDS011;38263;52.920;6.238;2023-11-21T00:12:24;31.48;;;9.13;;
52322;SDS011;38263;52.920;6.238;2023-11-21T00:14:50;24.23;;;8.02;;
52322;SDS011;38263;52.920;6.238;2023-11-21T00:17:16;29.00;;;9.73;;
52322;SDS011;38263;52.920;6.238;2023-11-21T00:19:42;30.30;;;9.00;;
52322;SDS011;38263;52.920;6.238;2023-11-21T00:22:08;29.73;;;9.35;;
52322;SDS011;38263;52.920;6.238;2023-11-21T00:24:34;29.48;;;8.40;;
52322;SDS011;38263;52.920;6.238;2023-11-21T00:27:00;29.83;;;7.75;;
52322;SDS011;38263;52.920;6.238;2023-11-21T00:29:26;28.30;;;9.10;;
52322;SDS011;38263;52.920;6.238;2023-11-21T00:31:52;26.88;;;8.20;;
52322;SDS011;38263;52.920;6.238;2023-11-21T00:34:18;25.42;;;9.02;;
52322;SDS011;38263;52.920;6.238;2023-11-21T00:36:44;26.13;;;7.90;;
52322;SDS011;38263;52.920;6.238;2023-11-21T00:39:10;25.95;;;8.27;;
52322;SDS011;38263;52.920;6.238;2023-11-21T00:41:37;27.27;;;8.90;;
52322;SDS011;38263;52.920;6.238;2023-11-21T00:44:03;25.83;;;8.38;;
52322;SDS011;38263;52.920;6.238;2023-11-21T00:46:29;23.60;;;8.98;;
52322;SDS011;38263;52.920;6.238;2023-11-21T00:48:55;33.88;;;9.02;;
52322;SDS011;38263;52.920;6.238;2023-11-21T00:51:22;27.15;;;8.13;;
52322;SDS011;38263;52.920;6.238;2023-11-21T00:53:48;21.40;;;8.82;;
52322;SDS011;38263;52.920;6.238;2023-11-21T00:56:14;26.60;;;7.90;;
52322;SDS011;38263;52.920;6.238;2023-11-21T00:58:40;27.85;;;8.23;;
52322;SDS011;38263;52.920;6.238;2023-11-21T01:01:11;21.85;;;8.73;;
52322;SDS011;38263;52.920;6.238;2023-11-21T01:03:37;24.63;;;8.63;;
52322;SDS011;38263;52.920;6.238;2023-11-21T01:06:03;28.48;;;8.73;;
52322;SDS011;38263;52.920;6.238;2023-11-21T01:08:32;21.63;;;8.38;;
52322;SDS011;38263;52.920;6.238;2023-11-21T01:10:58;23.98;;;9.20;;
52322;SDS011;38263;52.920;6.238;2023-11-21T01:13:23;22.92;;;8.65;;
52322;SDS011;38263;52.920;6.238;2023-11-21T01:15:53;30.05;;;7.97;;
52322;SDS011;38263;52.920;6.238;2023-11-21T01:18:19;33.58;;;9.68;;
52322;SDS011;38263;52.920;6.238;2023-11-21T01:20:45;28.92;;;9.45;;
52322;SDS011;38263;52.920;6.238;2023-11-21T01:23:12;28.02;;;8.80;;
52322;SDS011;38263;52.920;6.238;2023-11-21T01:25:38;24.55;;;9.35;;
52322;SDS011;38263;52.920;6.238;2023-11-21T01:28:03;29.45;;;10.18;;
52322;SDS011;38263;52.920;6.238;2023-11-21T01:30:29;32.75;;;8.82;;
52322;SDS011;38263;52.920;6.238;2023-11-21T01:32:57;35.50;;;10.38;;
52322;SDS011;38263;52.920;6.238;2023-11-21T01:35:23;38.15;;;9.90;;
52322;SDS011;38263;52.920;6.238;2023-11-21T01:37:49;30.80;;;9.35;;
52322;SDS011;38263;52.920;6.238;2023-11-21T01:40:15;28.65;;;9.52;;
52322;SDS011;38263;52.920;6.238;2023-11-21T01:42:41;31.75;;;10.90;;
52322;SDS011;38263;52.920;6.238;2023-11-21T01:45:08;26.92;;;9.30;;
52322;SDS011;38263;52.920;6.238;2023-11-21T01:47:35;29.90;;;9.45;;
52322;SDS011;38263;52.920;6.238;2023-11-21T01:50:02;31.02;;;9.80;;
52322;SDS011;38263;52.920;6.238;2023-11-21T01:52:31;24.33;;;8.70;;
52322;SDS011;38263;52.920;6.238;2023-11-21T01:54:57;37.15;;;10.35;;
52322;SDS011;38263;52.920;6.238;2023-11-21T01:57:24;27.58;;;10.90;;
52322;SDS011;38263;52.920;6.238;2023-11-21T01:59:50;25.38;;;9.52;;
52322;SDS011;38263;52.920;6.238;2023-11-21T02:02:18;29.95;;;10.70;;
52322;SDS011;38263;52.920;6.238;2023-11-21T02:04:44;34.70;;;11.07;;
52322;SDS011;38263;52.920;6.238;2023-11-21T02:07:10;25.17;;;9.30;;
52322;SDS011;38263;52.920;6.238;2023-11-21T02:09:36;31.33;;;9.00;;
52322;SDS011;38263;52.920;6.238;2023-11-21T02:12:07;27.58;;;9.80;;
52322;SDS011;38263;52.920;6.238;2023-11-21T02:14:36;28.35;;;9.30;;
52322;SDS011;38263;52.920;6.238;2023-11-21T02:17:02;22.48;;;9.60;;
52322;SDS011;38263;52.920;6.238;2023-11-21T02:19:28;27.23;;;10.02;;
52322;SDS011;38263;52.920;6.238;2023-11-21T02:21:59;22.08;;;10.05;;
52322;SDS011;38263;52.920;6.238;2023-11-21T02:24:28;30.80;;;10.18;;
52322;SDS011;38263;52.920;6.238;2023-11-21T02:26:54;29.15;;;10.25;;
52322;SDS011;38263;52.920;6.238;2023-11-21T02:29:20;26.45;;;9.98;;
52322;SDS011;38263;52.920;6.238;2023-11-21T02:31:47;36.00;;;10.80;;
52322;SDS011;38263;52.920;6.238;2023-11-21T02:34:17;29.85;;;10.90;;
52322;SDS011;38263;52.920;6.238;2023-11-21T02:36:43;26.05;;;10.25;;
52322;SDS011;38263;52.920;6.238;2023-11-21T02:39:10;26.35;;;9.65;;
52322;SDS011;38263;52.920;6.238;2023-11-21T02:41:39;28.17;;;9.90;;
52322;SDS011;38263;52.920;6.238;2023-11-21T02:44:06;28.65;;;9.15;;
52322;SDS011;38263;52.920;6.238;2023-11-21T02:46:35;28.48;;;10.15;;
52322;SDS011;38263;52.920;6.238;2023-11-21T02:49:02;25.65;;;9.75;;
52322;SDS011;38263;52.920;6.238;2023-11-21T02:51:28;24.70;;;9.40;;
52322;SDS011;38263;52.920;6.238;2023-11-21T02:53:54;27.50;;;11.38;;
52322;SDS011;38263;52.920;6.238;2023-11-21T02:56:24;27.17;;;9.85;;
52322;SDS011;38263;52.920;6.238;2023-11-21T02:58:50;20.73;;;9.20;;
52322;SDS011;38263;52.920;6.238;2023-11-21T03:01:15;22.35;;;9.60;;
52322;SDS011;38263;52.920;6.238;2023-11-21T03:03:42;28.95;;;10.02;;
52322;SDS011;38263;52.920;6.238;2023-11-21T03:06:08;25.27;;;9.90;;
52322;SDS011;38263;52.920;6.238;2023-11-21T03:08:34;29.65;;;10.82;;
52322;SDS011;38263;52.920;6.238;2023-11-21T03:11:00;31.58;;;11.38;;
52322;SDS011;38263;52.920;6.238;2023-11-21T03:13:28;26.55;;;10.13;;
52322;SDS011;38263;52.920;6.238;2023-11-21T03:15:54;33.13;;;10.75;;
52322;SDS011;38263;52.920;6.238;2023-11-21T03:18:20;32.35;;;11.30;;
52322;SDS011;38263;52.920;6.238;2023-11-21T03:20:51;37.38;;;11.43;;
52322;SDS011;38263;52.920;6.238;2023-11-21T03:23:18;26.33;;;10.70;;
52322;SDS011;38263;52.920;6.238;2023-11-21T03:25:44;28.05;;;11.50;;
52322;SDS011;38263;52.920;6.238;2023-11-21T03:28:10;28.10;;;11.73;;
52322;SDS011;38263;52.920;6.238;2023-11-21T03:30:36;28.33;;;11.25;;
52322;SDS011;38263;52.920;6.238;2023-11-21T03:33:02;31.02;;;12.27;;
52322;SDS011;38263;52.920;6.238;2023-11-21T03:35:28;36.47;;;12.20;;
52322;SDS011;38263;52.920;6.238;2023-11-21T03:37:54;28.60;;;12.20;;
52322;SDS011;38263;52.920;6.238;2023-11-21T03:40:21;38.45;;;13.00;;
52322;SDS011;38263;52.920;6.238;2023-11-21T03:42:47;48.53;;;13.80;;
52322;SDS011;38263;52.920;6.238;2023-11-21T03:45:13;45.50;;;12.73;;
52322;SDS011;38263;52.920;6.238;2023-11-21T03:47:40;40.78;;;14.07;;
52322;SDS011;38263;52.920;6.238;2023-11-21T03:50:06;40.22;;;12.70;;
52322;SDS011;38263;52.920;6.238;2023-11-21T03:52:33;53.40;;;13.10;;
52322;SDS011;38263;52.920;6.238;2023-11-21T03:55:00;45.22;;;13.90;;
52322;SDS011;38263;52.920;6.238;2023-11-21T03:57:26;41.03;;;13.20;;
52322;SDS011;38263;52.920;6.238;2023-11-21T03:59:52;40.97;;;14.18;;
52322;SDS011;38263;52.920;6.238;2023-11-21T04:02:19;40.30;;;13.20;;
52322;SDS011;38263;52.920;6.238;2023-11-21T04:04:45;50.88;;;14.60;;
52322;SDS011;38263;52.920;6.238;2023-11-21T04:07:11;56.70;;;14.85;;
52322;SDS011;38263;52.920;6.238;2023-11-21T04:09:38;57.75;;;16.38;;
52322;SDS011;38263;52.920;6.238;2023-11-21T04:12:04;50.13;;;15.50;;
52322;SDS011;38263;52.920;6.238;2023-11-21T04:14:32;62.05;;;15.57;;
52322;SDS011;38263;52.920;6.238;2023-11-21T04:16:58;59.90;;;17.27;;
52322;SDS011;38263;52.920;6.238;2023-11-21T04:19:24;57.35;;;17.58;;
52322;SDS011;38263;52.920;6.238;2023-11-21T04:21:50;56.40;;;16.85;;
52322;SDS011;38263;52.920;6.238;2023-11-21T04:24:16;56.50;;;16.55;;
52322;SDS011;38263;52.920;6.238;2023-11-21T04:26:43;65.10;;;17.38;;
52322;SDS011;38263;52.920;6.238;2023-11-21T04:29:10;52.10;;;17.02;;
52322;SDS011;38263;52.920;6.238;2023-11-21T04:31:36;60.58;;;18.23;;
52322;SDS011;38263;52.920;6.238;2023-11-21T04:34:03;63.38;;;17.33;;
52322;SDS011;38263;52.920;6.238;2023-11-21T04:36:29;58.55;;;19.58;;
52322;SDS011;38263;52.920;6.238;2023-11-21T04:38:59;58.85;;;17.92;;
52322;SDS011;38263;52.920;6.238;2023-11-21T04:41:25;65.53;;;19.35;;
52322;SDS011;38263;52.920;6.238;2023-11-21T04:43:51;59.40;;;18.20;;
52322;SDS011;38263;52.920;6.238;2023-11-21T04:46:17;68.07;;;19.58;;
52322;SDS011;38263;52.920;6.238;2023-11-21T04:48:43;73.80;;;19.88;;
52322;SDS011;38263;52.920;6.238;2023-11-21T04:51:09;59.80;;;18.98;;
52322;SDS011;38263;52.920;6.238;2023-11-21T04:53:37;59.47;;;17.95;;
52322;SDS011;38263;52.920;6.238;2023-11-21T04:56:04;56.90;;;18.15;;
52322;SDS011;38263;52.920;6.238;2023-11-21T04:58:31;61.03;;;18.88;;
52322;SDS011;38263;52.920;6.238;2023-11-21T05:00:58;56.85;;;18.65;;
52322;SDS011;38263;52.920;6.238;2023-11-21T05:03:24;58.70;;;18.65;;
52322;SDS011;38263;52.920;6.238;2023-11-21T05:05:49;66.13;;;19.90;;
52322;SDS011;38263;52.920;6.238;2023-11-21T05:08:15;53.58;;;17.27;;
52322;SDS011;38263;52.920;6.238;2023-11-21T05:10:42;56.42;;;18.52;;
52322;SDS011;38263;52.920;6.238;2023-11-21T05:13:08;52.45;;;17.40;;
52322;SDS011;38263;52.920;6.238;2023-11-21T05:15:35;48.72;;;17.27;;
52322;SDS011;38263;52.920;6.238;2023-11-21T05:18:01;38.42;;;16.40;;
52322;SDS011;38263;52.920;6.238;2023-11-21T05:20:28;40.30;;;16.27;;
52322;SDS011;38263;52.920;6.238;2023-11-21T05:22:54;41.50;;;17.23;;
52322;SDS011;38263;52.920;6.238;2023-11-21T05:25:20;39.72;;;16.77;;
52322;SDS011;38263;52.920;6.238;2023-11-21T05:27:46;42.53;;;16.48;;
52322;SDS011;38263;52.920;6.238;2023-11-21T05:30:13;50.85;;;17.13;;
52322;SDS011;38263;52.920;6.238;2023-11-21T05:32:39;43.97;;;16.77;;
52322;SDS011;38263;52.920;6.238;2023-11-21T05:35:07;45.00;;;17.95;;
52322;SDS011;38263;52.920;6.238;2023-11-21T05:37:43;54.92;;;17.83;;
52322;SDS011;38263;52.920;6.238;2023-11-21T05:40:09;41.58;;;17.48;;
52322;SDS011;38263;52.920;6.238;2023-11-21T05:42:35;54.65;;;18.55;;
52322;SDS011;38263;52.920;6.238;2023-11-21T05:45:03;45.25;;;19.13;;
52322;SDS011;38263;52.920;6.238;2023-11-21T05:47:39;47.00;;;17.92;;
52322;SDS011;38263;52.920;6.238;2023-11-21T05:50:06;45.70;;;17.15;;
52322;SDS011;38263;52.920;6.238;2023-11-21T05:52:36;43.38;;;16.50;;
52322;SDS011;38263;52.920;6.238;2023-11-21T05:55:02;36.38;;;17.95;;
52322;SDS011;38263;52.920;6.238;2023-11-21T05:57:30;38.53;;;15.70;;
52322;SDS011;38263;52.920;6.238;2023-11-21T05:59:56;34.58;;;14.57;;
52322;SDS011;38263;52.920;6.238;2023-11-21T06:02:22;28.67;;;14.13;;
52322;SDS011;38263;52.920;6.238;2023-11-21T06:04:48;35.35;;;15.48;;
52322;SDS011;38263;52.920;6.238;2023-11-21T06:07:13;37.78;;;13.65;;
52322;SDS011;38263;52.920;6.238;2023-11-21T06:09:39;34.22;;;14.52;;
52322;SDS011;38263;52.920;6.238;2023-11-21T06:12:05;37.47;;;15.77;;
52322;SDS011;38263;52.920;6.238;2023-11-21T06:14:32;36.22;;;13.88;;
52322;SDS011;38263;52.920;6.238;2023-11-21T06:17:00;41.90;;;15.15;;
52322;SDS011;38263;52.920;6.238;2023-11-21T06:19:26;41.63;;;16.10;;
52322;SDS011;38263;52.920;6.238;2023-11-21T06:21:52;37.10;;;14.85;;
52322;SDS011;38263;52.920;6.238;2023-11-21T06:24:18;31.10;;;13.20;;
52322;SDS011;38263;52.920;6.238;2023-11-21T06:26:45;28.40;;;13.48;;
52322;SDS011;38263;52.920;6.238;2023-11-21T06:29:13;26.77;;;13.30;;
52322;SDS011;38263;52.920;6.238;2023-11-21T06:31:40;31.50;;;13.93;;
52322;SDS011;38263;52.920;6.238;2023-11-21T06:34:06;35.00;;;13.75;;
52322;SDS011;38263;52.920;6.238;2023-11-21T06:36:34;36.20;;;14.48;;
52322;SDS011;38263;52.920;6.238;2023-11-21T06:39:00;36.67;;;15.55;;
52322;SDS011;38263;52.920;6.238;2023-11-21T06:41:26;41.22;;;15.60;;
52322;SDS011;38263;52.920;6.238;2023-11-21T06:43:52;39.50;;;15.75;;
52322;SDS011;38263;52.920;6.238;2023-11-21T06:46:18;40.38;;;16.60;;
52322;SDS011;38263;52.920;6.238;2023-11-21T06:48:44;41.70;;;15.90;;
52322;SDS011;38263;52.920;6.238;2023-11-21T06:51:11;39.15;;;16.52;;
52322;SDS011;38263;52.920;6.238;2023-11-21T06:53:38;41.03;;;15.52;;
52322;SDS011;38263;52.920;6.238;2023-11-21T06:56:04;38.35;;;15.13;;
52322;SDS011;38263;52.920;6.238;2023-11-21T06:58:30;40.85;;;14.57;;
52322;SDS011;38263;52.920;6.238;2023-11-21T07:00:56;37.72;;;14.13;;
52322;SDS011;38263;52.920;6.238;2023-11-21T07:03:23;33.08;;;13.93;;
52322;SDS011;38263;52.920;6.238;2023-11-21T07:05:50;35.78;;;12.95;;
52322;SDS011;38263;52.920;6.238;2023-11-21T07:08:16;38.47;;;13.07;;
52322;SDS011;38263;52.920;6.238;2023-11-21T07:10:42;27.83;;;12.63;;
52322;SDS011;38263;52.920;6.238;2023-11-21T07:13:08;29.65;;;13.65;;
52322;SDS011;38263;52.920;6.238;2023-11-21T07:15:37;27.25;;;11.52;;
52322;SDS011;38263;52.920;6.238;2023-11-21T07:18:03;32.13;;;11.82;;
52322;SDS011;38263;52.920;6.238;2023-11-21T07:20:31;27.55;;;11.98;;
52322;SDS011;38263;52.920;6.238;2023-11-21T07:22:57;26.33;;;12.02;;
52322;SDS011;38263;52.920;6.238;2023-11-21T07:25:25;29.85;;;11.75;;
52322;SDS011;38263;52.920;6.238;2023-11-21T07:27:51;30.33;;;11.68;;
52322;SDS011;38263;52.920;6.238;2023-11-21T07:30:18;28.75;;;13.43;;
52322;SDS011;38263;52.920;6.238;2023-11-21T07:32:44;29.17;;;11.52;;
52322;SDS011;38263;52.920;6.238;2023-11-21T07:35:12;29.40;;;12.13;;
52322;SDS011;38263;52.920;6.238;2023-11-21T07:37:38;21.63;;;9.55;;
52322;SDS011;38263;52.920;6.238;2023-11-21T07:40:05;19.48;;;10.13;;
52322;SDS011;38263;52.920;6.238;2023-11-21T07:42:33;23.33;;;10.25;;
52322;SDS011;38263;52.920;6.238;2023-11-21T07:44:59;20.33;;;10.90;;
52322;SDS011;38263;52.920;6.238;2023-11-21T07:47:25;21.83;;;10.07;;
52322;SDS011;38263;52.920;6.238;2023-11-21T07:49:52;20.15;;;10.95;;
52322;SDS011;38263;52.920;6.238;2023-11-21T07:52:20;23.48;;;10.30;;
52322;SDS011;38263;52.920;6.238;2023-11-21T07:54:47;22.33;;;10.63;;
52322;SDS011;38263;52.920;6.238;2023-11-21T07:57:13;23.73;;;10.93;;
52322;SDS011;38263;52.920;6.238;2023-11-21T07:59:40;20.63;;;11.00;;
52322;SDS011;38263;52.920;6.238;2023-11-21T08:02:06;26.20;;;12.25;;
52322;SDS011;38263;52.920;6.238;2023-11-21T08:04:32;23.13;;;10.60;;
52322;SDS011;38263;52.920;6.238;2023-11-21T08:07:00;27.25;;;11.70;;
52322;SDS011;38263;52.920;6.238;2023-11-21T08:09:26;24.90;;;11.55;;
52322;SDS011;38263;52.920;6.238;2023-11-21T08:11:52;25.67;;;11.82;;
52322;SDS011;38263;52.920;6.238;2023-11-21T08:14:19;22.38;;;10.85;;
52322;SDS011;38263;52.920;6.238;2023-11-21T08:16:45;25.27;;;12.20;;
52322;SDS011;38263;52.920;6.238;2023-11-21T08:19:12;24.75;;;11.02;;
52322;SDS011;38263;52.920;6.238;2023-11-21T08:21:38;22.08;;;10.52;;
52322;SDS011;38263;52.920;6.238;2023-11-21T08:24:08;26.73;;;11.80;;
52322;SDS011;38263;52.920;6.238;2023-11-21T08:26:36;26.08;;;11.30;;
52322;SDS011;38263;52.920;6.238;2023-11-21T08:29:02;30.55;;;11.27;;
52322;SDS011;38263;52.920;6.238;2023-11-21T08:31:28;26.83;;;11.82;;
52322;SDS011;38263;52.920;6.238;2023-11-21T08:33:54;29.02;;;11.88;;
52322;SDS011;38263;52.920;6.238;2023-11-21T08:36:21;31.42;;;12.43;;
52322;SDS011;38263;52.920;6.238;2023-11-21T08:38:49;28.42;;;11.95;;
52322;SDS011;38263;52.920;6.238;2023-11-21T08:41:17;27.55;;;12.27;;
52322;SDS011;38263;52.920;6.238;2023-11-21T08:43:47;29.83;;;11.93;;
52322;SDS011;38263;52.920;6.238;2023-11-21T08:46:13;26.13;;;11.57;;
52322;SDS011;38263;52.920;6.238;2023-11-21T08:48:40;27.90;;;11.80;;
52322;SDS011;38263;52.920;6.238;2023-11-21T08:51:06;23.65;;;11.35;;
52322;SDS011;38263;52.920;6.238;2023-11-21T08:53:32;20.25;;;10.45;;
52322;SDS011;38263;52.920;6.238;2023-11-21T08:55:58;19.38;;;9.63;;
52322;SDS011;38263;52.920;6.238;2023-11-21T08:58:25;19.25;;;9.70;;
52322;SDS011;38263;52.920;6.238;2023-11-21T09:00:51;22.45;;;10.27;;
52322;SDS011;38263;52.920;6.238;2023-11-21T09:03:17;17.42;;;8.98;;
52322;SDS011;38263;52.920;6.238;2023-11-21T09:05:43;17.92;;;9.32;;
52322;SDS011;38263;52.920;6.238;2023-11-21T09:08:09;16.73;;;8.43;;
52322;SDS011;38263;52.920;6.238;2023-11-21T09:10:35;21.23;;;9.73;;
52322;SDS011;38263;52.920;6.238;2023-11-21T09:13:02;18.20;;;8.52;;
52322;SDS011;38263;52.920;6.238;2023-11-21T09:15:28;17.25;;;8.02;;
52322;SDS011;38263;52.920;6.238;2023-11-21T09:17:54;20.73;;;9.48;;
52322;SDS011;38263;52.920;6.238;2023-11-21T09:20:21;17.65;;;9.05;;
52322;SDS011;38263;52.920;6.238;2023-11-21T09:22:48;17.70;;;9.50;;
52322;SDS011;38263;52.920;6.238;2023-11-21T09:25:14;21.20;;;10.18;;
52322;SDS011;38263;52.920;6.238;2023-11-21T09:27:40;19.58;;;10.82;;
52322;SDS011;38263;52.920;6.238;2023-11-21T09:30:07;18.80;;;10.52;;
52322;SDS011;38263;52.920;6.238;2023-11-21T09:32:35;23.17;;;11.82;;
52322;SDS011;38263;52.920;6.238;2023-11-21T09:35:02;23.58;;;11.90;;
52322;SDS011;38263;52.920;6.238;2023-11-21T09:37:29;21.88;;;11.82;;
52322;SDS011;38263;52.920;6.238;2023-11-21T09:39:55;23.30;;;12.45;;
52322;SDS011;38263;52.920;6.238;2023-11-21T09:44:55;26.17;;;13.05;;
52322;SDS011;38263;52.920;6.238;2023-11-21T09:47:24;25.73;;;13.73;;
52322;SDS011;38263;52.920;6.238;2023-11-21T09:49:50;27.02;;;13.50;;
52322;SDS011;38263;52.920;6.238;2023-11-21T09:52:22;31.15;;;15.75;;
52322;SDS011;38263;52.920;6.238;2023-11-21T09:54:50;29.23;;;15.23;;
52322;SDS011;38263;52.920;6.238;2023-11-21T09:57:17;25.48;;;14.13;;
52322;SDS011;38263;52.920;6.238;2023-11-21T09:59:43;24.33;;;13.60;;
52322;SDS011;38263;52.920;6.238;2023-11-21T10:02:10;24.83;;;14.02;;
52322;SDS011;38263;52.920;6.238;2023-11-21T10:04:38;27.65;;;13.38;;
52322;SDS011;38263;52.920;6.238;2023-11-21T10:07:04;21.75;;;13.70;;
52322;SDS011;38263;52.920;6.238;2023-11-21T10:09:35;23.10;;;14.07;;
52322;SDS011;38263;52.920;6.238;2023-11-21T10:12:01;21.13;;;13.43;;
52322;SDS011;38263;52.920;6.238;2023-11-21T10:14:28;19.55;;;12.73;;
52322;SDS011;38263;52.920;6.238;2023-11-21T10:16:55;21.02;;;13.40;;
52322;SDS011;38263;52.920;6.238;2023-11-21T10:19:22;18.98;;;12.57;;
52322;SDS011;38263;52.920;6.238;2023-11-21T10:21:48;18.40;;;12.13;;
52322;SDS011;38263;52.920;6.238;2023-11-21T10:24:16;21.25;;;13.38;;
52322;SDS011;38263;52.920;6.238;2023-11-21T10:26:43;20.58;;;12.60;;
52322;SDS011;38263;52.920;6.238;2023-11-21T10:29:10;20.20;;;13.23;;
52322;SDS011;38263;52.920;6.238;2023-11-21T10:31:42;20.08;;;13.27;;
52322;SDS011;38263;52.920;6.238;2023-11-21T10:34:16;23.80;;;12.43;;
52322;SDS011;38263;52.920;6.238;2023-11-21T10:36:43;23.45;;;12.88;;
52322;SDS011;38263;52.920;6.238;2023-11-21T10:39:09;23.02;;;13.07;;
52322;SDS011;38263;52.920;6.238;2023-11-21T10:41:45;20.05;;;12.68;;
52322;SDS011;38263;52.920;6.238;2023-11-21T10:44:15;22.15;;;13.57;;
52322;SDS011;38263;52.920;6.238;2023-11-21T10:46:46;20.85;;;12.02;;
52322;SDS011;38263;52.920;6.238;2023-11-21T10:49:15;20.25;;;13.10;;
52322;SDS011;38263;52.920;6.238;2023-11-21T10:51:43;22.80;;;13.02;;
52322;SDS011;38263;52.920;6.238;2023-11-21T10:54:09;20.13;;;13.32;;
52322;SDS011;38263;52.920;6.238;2023-11-21T10:56:35;24.00;;;13.65;;
52322;SDS011;38263;52.920;6.238;2023-11-21T10:59:05;18.88;;;13.10;;
52322;SDS011;38263;52.920;6.238;2023-11-21T11:01:33;19.38;;;12.95;;
52322;SDS011;38263;52.920;6.238;2023-11-21T11:03:59;22.83;;;13.48;;
52322;SDS011;38263;52.920;6.238;2023-11-21T11:06:25;19.85;;;12.73;;
52322;SDS011;38263;52.920;6.238;2023-11-21T11:08:52;22.85;;;14.23;;
52322;SDS011;38263;52.920;6.238;2023-11-21T11:11:19;22.45;;;12.65;;
52322;SDS011;38263;52.920;6.238;2023-11-21T11:13:44;20.92;;;12.75;;
52322;SDS011;38263;52.920;6.238;2023-11-21T11:16:13;19.38;;;12.63;;
52322;SDS011;38263;52.920;6.238;2023-11-21T11:18:42;18.55;;;12.80;;
52322;SDS011;38263;52.920;6.238;2023-11-21T11:21:16;17.52;;;11.82;;
52322;SDS011;38263;52.920;6.238;2023-11-21T11:23:49;18.23;;;12.30;;
52322;SDS011;38263;52.920;6.238;2023-11-21T11:31:24;17.92;;;11.35;;
52322;SDS011;38263;52.920;6.238;2023-11-21T11:33:55;14.00;;;10.27;;
52322;SDS011;38263;52.920;6.238;2023-11-21T11:36:31;15.80;;;9.43;;
52322;SDS011;38263;52.920;6.238;2023-11-21T11:39:00;13.73;;;9.10;;
52322;SDS011;38263;52.920;6.238;2023-11-21T11:41:30;13.57;;;9.15;;
52322;SDS011;38263;52.920;6.238;2023-11-21T11:43:59;13.10;;;8.93;;
52322;SDS011;38263;52.920;6.238;2023-11-21T11:46:42;12.50;;;8.77;;
52322;SDS011;38263;52.920;6.238;2023-11-21T11:49:10;14.23;;;8.52;;
52322;SDS011;38263;52.920;6.238;2023-11-21T11:51:36;14.27;;;9.13;;
52322;SDS011;38263;52.920;6.238;2023-11-21T11:54:02;13.48;;;8.35;;
52322;SDS011;38263;52.920;6.238;2023-11-21T11:56:29;12.57;;;8.95;;
52322;SDS011;38263;52.920;6.238;2023-11-21T11:59:00;14.13;;;8.32;;
52322;SDS011;38263;52.920;6.238;2023-11-21T12:01:27;10.85;;;7.75;;
52322;SDS011;38263;52.920;6.238;2023-11-21T12:06:39;11.45;;;8.60;;
52322;SDS011;38263;52.920;6.238;2023-11-21T12:09:06;12.10;;;7.60;;
52322;SDS011;38263;52.920;6.238;2023-11-21T12:11:32;10.70;;;7.65;;
52322;SDS011;38263;52.920;6.238;2023-11-21T12:14:00;11.65;;;8.65;;
52322;SDS011;38263;52.920;6.238;2023-11-21T12:16:27;14.00;;;8.15;;
52322;SDS011;38263;52.920;6.238;2023-11-21T12:18:53;11.38;;;8.00;;
52322;SDS011;38263;52.920;6.238;2023-11-21T12:21:20;11.63;;;7.53;;
52322;SDS011;38263;52.920;6.238;2023-11-21T12:23:46;11.85;;;7.57;;
52322;SDS011;38263;52.920;6.238;2023-11-21T12:26:12;14.55;;;8.02;;
52322;SDS011;38263;52.920;6.238;2023-11-21T12:28:39;11.30;;;7.97;;
52322;SDS011;38263;52.920;6.238;2023-11-21T12:31:05;11.02;;;7.30;;
52322;SDS011;38263;52.920;6.238;2023-11-21T12:33:34;9.27;;;6.85;;
52322;SDS011;38263;52.920;6.238;2023-11-21T12:36:00;10.52;;;6.90;;
52322;SDS011;38263;52.920;6.238;2023-11-21T12:38:33;10.43;;;6.70;;
52322;SDS011;38263;52.920;6.238;2023-11-21T12:41:00;10.50;;;7.63;;
52322;SDS011;38263;52.920;6.238;2023-11-21T12:43:26;9.55;;;6.70;;
52322;SDS011;38263;52.920;6.238;2023-11-21T12:46:04;11.25;;;6.93;;
52322;SDS011;38263;52.920;6.238;2023-11-21T12:48:31;10.02;;;6.63;;
52322;SDS011;38263;52.920;6.238;2023-11-21T12:50:57;11.18;;;7.22;;
52322;SDS011;38263;52.920;6.238;2023-11-21T12:53:25;10.77;;;7.18;;
52322;SDS011;38263;52.920;6.238;2023-11-21T12:55:51;10.10;;;7.20;;
52322;SDS011;38263;52.920;6.238;2023-11-21T12:58:17;11.25;;;6.68;;
52322;SDS011;38263;52.920;6.238;2023-11-21T13:00:48;12.45;;;7.00;;
52322;SDS011;38263;52.920;6.238;2023-11-21T13:03:16;9.98;;;7.07;;
52322;SDS011;38263;52.920;6.238;2023-11-21T13:05:45;8.52;;;6.38;;
52322;SDS011;38263;52.920;6.238;2023-11-21T13:08:11;8.27;;;6.13;;
52322;SDS011;38263;52.920;6.238;2023-11-21T13:10:44;10.25;;;6.07;;
52322;SDS011;38263;52.920;6.238;2023-11-21T13:13:12;7.70;;;5.60;;
52322;SDS011;38263;52.920;6.238;2023-11-21T13:15:49;7.55;;;5.75;;
52322;SDS011;38263;52.920;6.238;2023-11-21T13:18:16;7.93;;;6.15;;
52322;SDS011;38263;52.920;6.238;2023-11-21T13:20:42;12.43;;;6.65;;
52322;SDS011;38263;52.920;6.238;2023-11-21T13:23:09;7.57;;;5.43;;
52322;SDS011;38263;52.920;6.238;2023-11-21T13:25:41;8.50;;;6.28;;
52322;SDS011;38263;52.920;6.238;2023-11-21T13:28:07;8.73;;;6.50;;
52322;SDS011;38263;52.920;6.238;2023-11-21T13:30:34;10.95;;;6.43;;
52322;SDS011;38263;52.920;6.238;2023-11-21T13:33:01;9.27;;;6.38;;
52322;SDS011;38263;52.920;6.238;2023-11-21T13:35:30;11.23;;;7.13;;
52322;SDS011;38263;52.920;6.238;2023-11-21T13:38:02;9.95;;;6.38;;
52322;SDS011;38263;52.920;6.238;2023-11-21T13:40:30;9.73;;;6.35;;
52322;SDS011;38263;52.920;6.238;2023-11-21T13:42:56;9.98;;;6.63;;
52322;SDS011;38263;52.920;6.238;2023-11-21T13:45:25;9.95;;;6.40;;
52322;SDS011;38263;52.920;6.238;2023-11-21T13:47:53;8.57;;;6.30;;
52322;SDS011;38263;52.920;6.238;2023-11-21T13:50:26;10.90;;;6.47;;
52322;SDS011;38263;52.920;6.238;2023-11-21T13:52:59;9.15;;;5.97;;
52322;SDS011;38263;52.920;6.238;2023-11-21T13:55:35;10.15;;;6.15;;
52322;SDS011;38263;52.920;6.238;2023-11-21T13:58:02;8.13;;;6.05;;
52322;SDS011;38263;52.920;6.238;2023-11-21T14:00:29;9.57;;;5.80;;
52322;SDS011;38263;52.920;6.238;2023-11-21T14:03:04;9.70;;;5.47;;
52322;SDS011;38263;52.920;6.238;2023-11-21T14:05:35;7.50;;;5.60;;
52322;SDS011;38263;52.920;6.238;2023-11-21T14:08:01;8.48;;;5.65;;
52322;SDS011;38263;52.920;6.238;2023-11-21T14:10:29;9.75;;;5.97;;
52322;SDS011;38263;52.920;6.238;2023-11-21T14:13:08;12.18;;;6.53;;
52322;SDS011;38263;52.920;6.238;2023-11-21T14:15:41;9.82;;;5.55;;
52322;SDS011;38263;52.920;6.238;2023-11-21T14:18:10;6.57;;;4.75;;
52322;SDS011;38263;52.920;6.238;2023-11-21T14:20:36;8.95;;;5.90;;
52322;SDS011;38263;52.920;6.238;2023-11-21T14:23:03;8.02;;;5.63;;
52322;SDS011;38263;52.920;6.238;2023-11-21T14:25:34;8.52;;;5.80;;
52322;SDS011;38263;52.920;6.238;2023-11-21T14:28:01;9.68;;;5.82;;
52322;SDS011;38263;52.920;6.238;2023-11-21T14:30:28;11.27;;;6.63;;
52322;SDS011;38263;52.920;6.238;2023-11-21T14:32:57;13.00;;;7.25;;
52322;SDS011;38263;52.920;6.238;2023-11-21T14:35:23;9.73;;;5.80;;
52322;SDS011;38263;52.920;6.238;2023-11-21T14:37:49;10.32;;;5.70;;